createdAt,value
2018-01-14T00:00:17.496Z,61.60
2018-01-14T00:01:18.589Z,61.30
2018-01-14T00:02:19.717Z,61.40
2018-01-14T00:03:20.807Z,61.00
2018-01-14T00:04:21.883Z,60.80
2018-01-14T00:05:23.008Z,60.60
2018-01-14T00:06:24.085Z,60.90
2018-01-14T00:07:25.192Z,60.60
2018-01-14T00:08:26.293Z,60.60
2018-01-14T00:09:28.115Z,60.70
2018-01-14T00:10:29.264Z,60.80
2018-01-14T00:11:30.335Z,60.60
2018-01-14T00:12:31.429Z,60.50
2018-01-14T00:13:32.507Z,60.50
2018-01-14T00:14:33.574Z,60.60
2018-01-14T00:15:36.143Z,60.60
2018-01-14T00:16:37.206Z,60.50
2018-01-14T00:17:39.030Z,60.60
2018-01-14T00:18:40.134Z,60.50
2018-01-14T00:19:41.231Z,60.50
2018-01-14T00:20:43.051Z,60.50
2018-01-14T00:21:44.146Z,60.50
2018-01-14T00:22:45.237Z,60.50
2018-01-14T00:23:47.357Z,60.60
2018-01-14T00:24:49.208Z,60.50
2018-01-14T00:25:52.420Z,60.50
2018-01-14T00:26:53.981Z,60.60
2018-01-14T00:27:55.802Z,60.60
2018-01-14T00:28:57.280Z,60.50
2018-01-14T00:29:58.604Z,60.60
2018-01-14T00:30:59.704Z,60.40
2018-01-14T00:32:00.798Z,60.40
2018-01-14T00:33:01.870Z,60.40
2018-01-14T00:34:02.959Z,60.40
2018-01-14T00:35:04.034Z,60.40
2018-01-14T00:36:05.136Z,60.40
2018-01-14T00:37:07.000Z,60.40
2018-01-14T00:38:08.087Z,60.40
2018-01-14T00:39:09.175Z,60.40
2018-01-14T00:40:10.250Z,60.40
2018-01-14T00:41:11.339Z,60.40
2018-01-14T00:42:12.471Z,60.40
2018-01-14T00:43:13.570Z,61.20
2018-01-14T00:44:14.657Z,60.40
2018-01-14T00:45:15.748Z,60.70
2018-01-14T00:46:16.824Z,60.30
2018-01-14T00:47:17.895Z,60.50
2018-01-14T00:48:18.989Z,60.70
2018-01-14T00:49:20.063Z,60.80
2018-01-14T00:50:21.132Z,60.70
2018-01-14T00:51:22.232Z,60.40
2018-01-14T00:52:23.303Z,60.50
2018-01-14T00:53:24.387Z,60.20
2018-01-14T00:54:26.216Z,60.40
2018-01-14T00:55:28.030Z,60.60
2018-01-14T00:56:29.107Z,61.40
2018-01-14T00:57:30.175Z,60.90
2018-01-14T00:58:31.271Z,61.20
2018-01-14T00:59:32.347Z,61.10
2018-01-14T01:00:33.435Z,61.20
2018-01-14T01:01:34.534Z,61.20
2018-01-14T01:02:35.622Z,61.00
2018-01-14T01:03:36.698Z,60.90
2018-01-14T01:04:37.770Z,60.70
2018-01-14T01:05:38.838Z,60.80
2018-01-14T01:06:39.950Z,60.70
2018-01-14T01:07:41.016Z,60.50
2018-01-14T01:08:42.134Z,60.60
2018-01-14T01:09:43.197Z,61.00
2018-01-14T01:10:45.016Z,60.80
2018-01-14T01:11:46.099Z,60.80
2018-01-14T01:12:47.548Z,60.40
2018-01-14T01:13:48.656Z,60.50
2018-01-14T01:14:49.730Z,60.20
2018-01-14T01:15:50.825Z,60.30
2018-01-14T01:16:52.654Z,60.40
2018-01-14T01:17:53.736Z,60.40
2018-01-14T01:18:54.818Z,61.60
2018-01-14T01:19:55.903Z,60.80
2018-01-14T01:20:56.991Z,60.60
2018-01-14T01:21:58.828Z,60.30
2018-01-14T01:22:59.923Z,60.30
2018-01-14T01:24:01.015Z,61.10
2018-01-14T01:25:02.148Z,60.40
2018-01-14T01:26:03.997Z,60.40
2018-01-14T01:27:05.120Z,60.50
2018-01-14T01:28:06.288Z,60.50
2018-01-14T01:29:07.383Z,60.30
2018-01-14T01:30:08.463Z,60.80
2018-01-14T01:31:09.563Z,60.80
2018-01-14T01:32:11.394Z,60.90
2018-01-14T01:33:12.474Z,60.90
2018-01-14T01:34:13.620Z,60.90
2018-01-14T01:35:14.703Z,60.60
2018-01-14T01:36:15.977Z,60.30
2018-01-14T01:37:17.075Z,60.30
2018-01-14T01:38:18.440Z,60.20
2018-01-14T01:39:19.570Z,60.20
2018-01-14T01:40:20.675Z,60.30
2018-01-14T01:41:21.809Z,60.30
2018-01-14T01:42:22.903Z,60.30
2018-01-14T01:43:24.003Z,60.30
2018-01-14T01:44:25.098Z,60.20
2018-01-14T01:45:26.203Z,60.20
2018-01-14T01:46:27.319Z,60.10
2018-01-14T01:47:28.427Z,60.30
2018-01-14T01:48:30.248Z,60.20
2018-01-14T01:49:31.341Z,60.20
2018-01-14T01:50:33.176Z,60.20
2018-01-14T01:51:34.279Z,60.20
2018-01-14T01:52:35.423Z,60.20
2018-01-14T01:53:37.246Z,60.30
2018-01-14T01:54:38.323Z,60.20
2018-01-14T01:55:39.404Z,60.20
2018-01-14T01:56:40.502Z,60.20
2018-01-14T01:57:41.597Z,60.10
2018-01-14T01:58:42.682Z,60.10
2018-01-14T01:59:43.764Z,60.10
2018-01-14T02:00:45.595Z,60.20
2018-01-14T02:01:46.873Z,60.20
2018-01-14T02:02:47.984Z,61.00
2018-01-14T02:03:49.827Z,60.10
2018-01-14T02:04:50.914Z,60.10
2018-01-14T02:05:52.019Z,60.10
2018-01-14T02:06:53.107Z,60.10
2018-01-14T02:07:54.190Z,60.10
2018-01-14T02:08:55.275Z,60.20
2018-01-14T02:09:56.371Z,60.10
2018-01-14T02:10:57.442Z,60.10
2018-01-14T02:11:58.709Z,60.10
2018-01-14T02:12:59.795Z,60.40
2018-01-14T02:14:00.898Z,60.70
2018-01-14T02:15:02.008Z,60.90
2018-01-14T02:16:03.126Z,60.90
2018-01-14T02:17:04.226Z,61.10
2018-01-14T02:18:05.316Z,61.20
2018-01-14T02:19:06.478Z,61.10
2018-01-14T02:20:07.522Z,61.00
2018-01-14T02:21:08.598Z,61.20
2018-01-14T02:22:10.428Z,60.70
2018-01-14T02:23:11.524Z,60.80
2018-01-14T02:24:12.616Z,60.80
2018-01-14T02:25:13.698Z,61.00
2018-01-14T02:26:14.783Z,60.90
2018-01-14T02:27:15.907Z,60.70
2018-01-14T02:28:17.000Z,60.80
2018-01-14T02:29:18.098Z,61.70
2018-01-14T02:30:19.191Z,61.20
2018-01-14T02:31:21.047Z,61.30
2018-01-14T02:32:23.034Z,61.20
2018-01-14T02:33:24.141Z,61.10
2018-01-14T02:34:25.971Z,61.00
2018-01-14T02:35:27.803Z,61.60
2018-01-14T02:36:28.895Z,60.80
2018-01-14T02:37:29.986Z,60.80
2018-01-14T02:38:31.062Z,60.80
2018-01-14T02:39:32.158Z,60.90
2018-01-14T02:40:34.031Z,61.10
2018-01-14T02:41:35.146Z,61.10
2018-01-14T02:42:36.996Z,61.50
2018-01-14T02:43:38.095Z,61.50
2018-01-14T02:44:39.196Z,61.80
2018-01-14T02:45:40.311Z,61.80
2018-01-14T02:46:41.391Z,61.80
2018-01-14T02:47:42.503Z,61.60
2018-01-14T02:48:43.595Z,61.90
2018-01-14T02:49:45.435Z,61.60
2018-01-14T02:50:46.527Z,61.50
2018-01-14T02:51:47.607Z,61.80
2018-01-14T02:52:49.471Z,61.90
2018-01-14T02:53:50.614Z,61.70
2018-01-14T02:54:51.726Z,61.80
2018-01-14T02:55:53.575Z,61.80
2018-01-14T02:56:55.424Z,61.50
2018-01-14T02:57:57.298Z,61.50
2018-01-14T02:58:58.406Z,61.60
2018-01-14T03:00:00.231Z,61.70
2018-01-14T03:01:01.324Z,61.60
2018-01-14T03:02:02.406Z,61.50
2018-01-14T03:03:03.530Z,61.60
2018-01-14T03:04:04.659Z,61.60
2018-01-14T03:05:05.744Z,61.50
2018-01-14T03:06:06.827Z,61.50
2018-01-14T03:07:07.910Z,61.40
2018-01-14T03:08:09.006Z,61.80
2018-01-14T03:09:10.086Z,61.60
2018-01-14T03:10:11.164Z,61.90
2018-01-14T03:11:12.232Z,62.00
2018-01-14T03:12:14.043Z,62.60
2018-01-14T03:13:15.115Z,61.80
2018-01-14T03:14:16.185Z,61.70
2018-01-14T03:15:17.262Z,61.90
2018-01-14T03:16:18.339Z,62.00
2018-01-14T03:17:19.417Z,62.00
2018-01-14T03:18:20.511Z,61.90
2018-01-14T03:19:21.562Z,61.70
2018-01-14T03:20:22.635Z,61.80
2018-01-14T03:21:23.687Z,62.00
2018-01-14T03:22:24.791Z,62.20
2018-01-14T03:23:25.884Z,62.00
2018-01-14T03:24:26.948Z,62.00
2018-01-14T03:25:28.767Z,62.00
2018-01-14T03:26:29.811Z,62.00
2018-01-14T03:27:30.920Z,62.10
2018-01-14T03:28:32.003Z,62.10
2018-01-14T03:29:33.793Z,62.10
2018-01-14T03:30:34.856Z,62.10
2018-01-14T03:31:35.918Z,62.30
2018-01-14T03:32:37.726Z,62.50
2018-01-14T03:33:38.798Z,62.50
2018-01-14T03:34:40.591Z,62.30
2018-01-14T03:35:41.654Z,62.30
2018-01-14T03:36:42.750Z,62.00
2018-01-14T03:37:43.826Z,62.30
2018-01-14T03:38:44.892Z,62.10
2018-01-14T03:39:45.960Z,62.20
2018-01-14T03:40:47.019Z,62.30
2018-01-14T03:41:48.064Z,62.30
2018-01-14T03:42:49.870Z,62.70
2018-01-14T03:43:50.946Z,62.30
2018-01-14T03:44:52.750Z,62.60
2018-01-14T03:45:53.806Z,62.60
2018-01-14T03:46:54.879Z,62.30
2018-01-14T03:47:55.972Z,62.10
2018-01-14T03:48:57.042Z,62.20
2018-01-14T03:49:58.106Z,62.30
2018-01-14T03:50:59.176Z,62.30
2018-01-14T03:52:00.986Z,62.30
2018-01-14T03:53:02.056Z,62.20
2018-01-14T03:55:11.112Z,62.30
2018-01-14T03:56:12.175Z,62.60
2018-01-14T03:57:13.968Z,62.50
2018-01-14T03:58:15.023Z,62.50
2018-01-14T03:59:16.091Z,62.60
2018-01-14T04:00:17.172Z,62.60
2018-01-14T04:01:18.242Z,62.40
2018-01-14T04:02:19.299Z,62.50
2018-01-14T04:03:20.363Z,62.80
2018-01-14T04:04:21.435Z,62.20
2018-01-14T04:05:22.503Z,62.30
2018-01-14T04:06:23.555Z,62.30
2018-01-14T04:07:24.622Z,62.50
2018-01-14T04:08:25.675Z,62.50
2018-01-14T04:09:26.759Z,62.40
2018-01-14T04:10:27.830Z,62.30
2018-01-14T04:11:28.899Z,62.50
2018-01-14T04:12:29.986Z,62.40
2018-01-14T04:13:31.050Z,62.40
2018-01-14T04:14:32.110Z,62.40
2018-01-14T04:15:33.179Z,62.50
2018-01-14T04:16:34.250Z,62.50
2018-01-14T04:17:35.327Z,62.40
2018-01-14T04:18:37.130Z,62.30
2018-01-14T04:19:38.223Z,62.30
2018-01-14T04:20:39.291Z,61.90
2018-01-14T04:21:40.362Z,62.10
2018-01-14T04:22:41.450Z,61.60
2018-01-14T04:23:42.512Z,61.80
2018-01-14T04:24:43.586Z,61.80
2018-01-14T04:25:44.658Z,62.00
2018-01-14T04:26:45.714Z,61.90
2018-01-14T04:27:46.794Z,62.10
2018-01-14T04:28:47.855Z,62.00
2018-01-14T04:29:48.910Z,62.20
2018-01-14T04:30:49.968Z,62.10
2018-01-14T04:31:51.028Z,62.00
2018-01-14T04:32:52.098Z,61.90
2018-01-14T04:33:53.192Z,62.10
2018-01-14T04:34:54.983Z,62.40
2018-01-14T04:35:56.794Z,62.40
2018-01-14T04:36:57.862Z,62.30
2018-01-14T04:37:59.672Z,62.20
2018-01-14T04:39:00.741Z,62.90
2018-01-14T04:40:02.563Z,62.60
2018-01-14T04:41:03.634Z,62.50
2018-01-14T04:42:05.450Z,62.60
2018-01-14T04:43:06.495Z,62.60
2018-01-14T04:44:07.566Z,62.40
2018-01-14T04:45:08.647Z,62.50
2018-01-14T04:46:09.709Z,62.30
2018-01-14T04:47:10.791Z,62.30
2018-01-14T04:48:11.869Z,62.30
2018-01-14T04:49:12.947Z,62.40
2018-01-14T04:50:14.011Z,62.50
2018-01-14T04:51:15.082Z,62.30
2018-01-14T04:52:16.134Z,62.30
2018-01-14T04:53:17.210Z,62.20
2018-01-14T04:54:18.283Z,62.20
2018-01-14T04:55:19.362Z,62.40
2018-01-14T04:56:20.426Z,62.50
2018-01-14T04:57:22.236Z,62.40
2018-01-14T04:58:23.292Z,62.30
2018-01-14T04:59:24.359Z,62.40
2018-01-14T05:00:26.186Z,62.40
2018-01-14T05:01:28.135Z,62.20
2018-01-14T05:02:30.009Z,62.20
2018-01-14T05:03:31.035Z,62.20
2018-01-14T05:04:32.838Z,62.40
2018-01-14T05:05:33.906Z,62.30
2018-01-14T05:06:34.957Z,62.30
2018-01-14T05:07:36.034Z,62.20
2018-01-14T05:08:37.102Z,62.20
2018-01-14T05:09:39.818Z,62.30
2018-01-14T05:10:40.938Z,62.30
2018-01-14T05:11:41.987Z,62.40
2018-01-14T05:12:43.055Z,62.30
2018-01-14T05:13:44.118Z,62.40
2018-01-14T05:14:45.173Z,62.20
2018-01-14T05:15:46.242Z,62.10
2018-01-14T05:16:47.339Z,62.50
2018-01-14T05:17:48.398Z,62.00
2018-01-14T05:18:49.459Z,62.00
2018-01-14T05:19:51.258Z,61.90
2018-01-14T05:20:52.338Z,61.90
2018-01-14T05:21:53.449Z,62.20
2018-01-14T05:22:54.482Z,62.30
2018-01-14T05:23:55.538Z,62.30
2018-01-14T05:24:57.372Z,61.90
2018-01-14T05:25:58.459Z,61.90
2018-01-14T05:26:59.536Z,62.00
2018-01-14T05:28:00.600Z,61.90
2018-01-14T05:29:01.666Z,62.10
2018-01-14T05:30:02.740Z,62.20
2018-01-14T05:31:03.799Z,63.00
2018-01-14T05:32:04.869Z,62.30
2018-01-14T05:33:05.945Z,62.50
2018-01-14T05:34:07.013Z,62.10
2018-01-14T05:35:08.074Z,61.90
2018-01-14T05:36:09.134Z,61.90
2018-01-14T05:37:10.943Z,62.00
2018-01-14T05:38:12.043Z,62.00
2018-01-14T05:39:13.102Z,62.10
2018-01-14T05:40:14.159Z,62.10
2018-01-14T05:41:15.286Z,61.80
2018-01-14T05:42:16.393Z,62.00
2018-01-14T05:43:17.464Z,62.20
2018-01-14T05:44:18.583Z,62.40
2018-01-14T05:45:19.694Z,61.90
2018-01-14T05:46:20.778Z,61.90
2018-01-14T05:47:21.827Z,62.00
2018-01-14T05:48:22.886Z,61.50
2018-01-14T05:49:23.951Z,61.80
2018-01-14T05:50:24.998Z,61.80
2018-01-14T05:51:26.055Z,61.90
2018-01-14T05:52:27.114Z,61.90
2018-01-14T05:53:28.199Z,61.60
2018-01-14T05:54:29.272Z,61.80
2018-01-14T05:55:30.366Z,61.60
2018-01-14T05:56:32.186Z,61.90
2018-01-14T05:57:33.243Z,61.80
2018-01-14T05:58:34.295Z,61.90
2018-01-14T05:59:35.363Z,61.90
2018-01-14T06:00:36.422Z,61.80
2018-01-14T06:01:37.510Z,61.50
2018-01-14T06:02:38.551Z,61.60
2018-01-14T06:03:39.613Z,61.60
2018-01-14T06:04:40.687Z,62.00
2018-01-14T06:05:42.522Z,61.80
2018-01-14T06:06:44.341Z,61.70
2018-01-14T06:07:45.452Z,61.70
2018-01-14T06:08:46.542Z,61.60
2018-01-14T06:09:47.618Z,62.70
2018-01-14T06:10:48.727Z,61.90
2018-01-14T06:11:49.791Z,61.70
2018-01-14T06:12:50.838Z,61.80
2018-01-14T06:13:51.894Z,61.60
2018-01-14T06:14:52.959Z,61.90
2018-01-14T06:15:54.040Z,61.80
2018-01-14T06:16:55.122Z,62.00
2018-01-14T06:17:56.191Z,61.80
2018-01-14T06:18:57.286Z,61.80
2018-01-14T06:19:58.343Z,61.50
2018-01-14T06:20:59.398Z,61.60
2018-01-14T06:22:00.470Z,61.70
2018-01-14T06:23:01.535Z,61.80
2018-01-14T06:24:02.615Z,61.60
2018-01-14T06:25:03.679Z,61.60
2018-01-14T06:26:04.755Z,61.50
2018-01-14T06:27:05.845Z,61.80
2018-01-14T06:28:06.979Z,61.40
2018-01-14T06:29:08.042Z,62.50
2018-01-14T06:30:09.100Z,61.70
2018-01-14T06:31:10.173Z,61.70
2018-01-14T06:32:11.251Z,61.50
2018-01-14T06:33:12.334Z,61.50
2018-01-14T06:34:13.399Z,61.70
2018-01-14T06:35:14.466Z,61.60
2018-01-14T06:36:16.283Z,61.60
2018-01-14T06:37:17.387Z,61.60
2018-01-14T06:38:18.463Z,61.90
2018-01-14T06:39:19.542Z,61.90
2018-01-14T06:40:20.610Z,61.80
2018-01-14T06:41:21.671Z,61.60
2018-01-14T06:42:22.751Z,61.90
2018-01-14T06:43:23.824Z,62.10
2018-01-14T06:44:24.898Z,61.50
2018-01-14T06:45:25.960Z,61.50
2018-01-14T06:46:27.071Z,61.50
2018-01-14T06:47:28.134Z,61.60
2018-01-14T06:48:29.263Z,61.40
2018-01-14T06:49:30.343Z,61.60
2018-01-14T06:50:31.403Z,61.30
2018-01-14T06:51:32.481Z,61.30
2018-01-14T06:52:33.546Z,61.30
2018-01-14T06:53:35.379Z,61.10
2018-01-14T06:54:37.187Z,60.80
2018-01-14T06:55:38.278Z,60.90
2018-01-14T06:56:39.330Z,61.10
2018-01-14T06:57:40.408Z,61.20
2018-01-14T06:58:41.494Z,61.30
2018-01-14T06:59:42.563Z,61.20
2018-01-14T07:00:43.626Z,61.30
2018-01-14T07:01:44.694Z,61.20
2018-01-14T07:02:45.762Z,61.50
2018-01-14T07:03:46.818Z,61.50
2018-01-14T07:04:47.871Z,61.80
2018-01-14T07:05:48.951Z,61.70
2018-01-14T07:06:50.019Z,61.60
2018-01-14T07:07:51.820Z,61.40
2018-01-14T07:08:52.886Z,61.40
2018-01-14T07:09:53.975Z,61.50
2018-01-14T07:10:55.078Z,61.40
2018-01-14T07:11:56.143Z,61.30
2018-01-14T07:12:57.284Z,61.60
2018-01-14T07:13:58.359Z,61.40
2018-01-14T07:14:59.445Z,61.60
2018-01-14T07:16:00.506Z,62.00
2018-01-14T07:17:01.576Z,61.60
2018-01-14T07:18:02.660Z,61.40
2018-01-14T07:19:03.750Z,61.60
2018-01-14T07:20:04.826Z,61.90
2018-01-14T07:21:05.890Z,61.80
2018-01-14T07:22:07.692Z,61.60
2018-01-14T07:23:08.762Z,61.60
2018-01-14T07:24:09.856Z,61.80
2018-01-14T07:25:10.915Z,61.50
2018-01-14T07:26:11.982Z,61.50
2018-01-14T07:27:13.056Z,61.40
2018-01-14T07:28:14.122Z,61.30
2018-01-14T07:29:15.175Z,61.30
2018-01-14T07:30:16.970Z,61.60
2018-01-14T07:31:18.060Z,61.60
2018-01-14T07:32:19.118Z,61.60
2018-01-14T07:33:20.199Z,61.90
2018-01-14T07:34:21.306Z,61.90
2018-01-14T07:35:22.371Z,61.80
2018-01-14T07:36:24.187Z,61.90
2018-01-14T07:37:25.268Z,61.80
2018-01-14T07:38:27.086Z,62.40
2018-01-14T07:39:28.163Z,62.40
2018-01-14T07:40:29.225Z,62.00
2018-01-14T07:41:30.290Z,62.10
2018-01-14T07:42:31.377Z,62.10
2018-01-14T07:43:32.507Z,61.90
2018-01-14T07:44:33.581Z,61.90
2018-01-14T07:45:34.651Z,62.20
2018-01-14T07:46:35.714Z,61.90
2018-01-14T07:47:36.798Z,61.70
2018-01-14T07:48:37.855Z,61.70
2018-01-14T07:49:38.952Z,61.50
2018-01-14T07:50:40.066Z,61.90
2018-01-14T07:51:41.111Z,61.80
2018-01-14T07:52:42.159Z,62.00
2018-01-14T07:53:43.267Z,61.70
2018-01-14T07:54:44.339Z,61.60
2018-01-14T07:55:45.418Z,61.70
2018-01-14T07:56:46.482Z,61.80
2018-01-14T07:57:48.279Z,62.00
2018-01-14T07:58:49.358Z,62.00
2018-01-14T07:59:50.411Z,62.00
2018-01-14T08:00:51.475Z,62.10
2018-01-14T08:01:52.541Z,61.80
2018-01-14T08:02:53.591Z,61.40
2018-01-14T08:03:55.410Z,61.60
2018-01-14T08:04:56.470Z,61.50
2018-01-14T08:05:58.258Z,61.60
2018-01-14T08:06:59.347Z,61.50
2018-01-14T08:08:00.399Z,61.20
2018-01-14T08:09:01.478Z,61.50
2018-01-14T08:10:02.546Z,61.50
2018-01-14T08:11:04.638Z,61.60
2018-01-14T08:12:05.706Z,61.60
2018-01-14T08:13:06.759Z,61.40
2018-01-14T08:14:08.575Z,61.30
2018-01-14T08:15:09.654Z,61.30
2018-01-14T08:16:10.742Z,61.30
2018-01-14T08:17:11.807Z,61.30
2018-01-14T08:18:13.611Z,61.60
2018-01-14T08:19:14.712Z,61.60
2018-01-14T08:20:15.783Z,61.20
2018-01-14T08:21:16.848Z,61.00
2018-01-14T08:22:17.911Z,61.10
2018-01-14T08:23:18.984Z,61.20
2018-01-14T08:24:20.096Z,61.20
2018-01-14T08:25:21.155Z,61.10
2018-01-14T08:26:22.236Z,61.00
2018-01-14T08:27:23.311Z,61.20
2018-01-14T08:28:24.395Z,61.40
2018-01-14T08:29:25.480Z,61.20
2018-01-14T08:30:26.567Z,62.40
2018-01-14T08:31:27.628Z,61.50
2018-01-14T08:32:28.691Z,61.70
2018-01-14T08:33:29.763Z,61.60
2018-01-14T08:34:30.835Z,61.20
2018-01-14T08:35:31.902Z,61.40
2018-01-14T08:36:33.705Z,61.10
2018-01-14T08:37:34.788Z,61.10
2018-01-14T08:38:35.842Z,61.10
2018-01-14T08:39:36.927Z,61.20
2018-01-14T08:40:38.013Z,61.40
2018-01-14T08:41:39.086Z,61.60
2018-01-14T08:42:40.141Z,61.40
2018-01-14T08:43:41.207Z,61.40
2018-01-14T08:44:42.279Z,61.60
2018-01-14T08:45:43.354Z,61.30
2018-01-14T08:46:45.159Z,61.60
2018-01-14T08:47:46.223Z,61.60
2018-01-14T08:48:48.018Z,61.40
2018-01-14T08:49:49.096Z,61.30
2018-01-14T08:50:50.918Z,61.50
2018-01-14T08:51:51.988Z,61.40
2018-01-14T08:52:53.799Z,61.80
2018-01-14T08:53:54.865Z,61.80
2018-01-14T08:54:56.704Z,62.00
2018-01-14T08:55:57.759Z,61.90
2018-01-14T08:56:58.830Z,61.80
2018-01-14T08:57:59.912Z,62.00
2018-01-14T08:59:01.719Z,62.00
2018-01-14T09:00:02.814Z,62.00
2018-01-14T09:01:03.894Z,61.60
2018-01-14T09:02:04.959Z,61.50
2018-01-14T09:03:06.030Z,61.80
2018-01-14T09:04:07.095Z,61.70
2018-01-14T09:05:08.172Z,61.60
2018-01-14T09:06:09.261Z,61.90
2018-01-14T09:07:10.336Z,61.80
2018-01-14T09:08:11.406Z,61.70
2018-01-14T09:09:12.472Z,61.60
2018-01-14T09:10:13.545Z,61.30
2018-01-14T09:11:14.623Z,61.20
2018-01-14T09:12:15.699Z,60.90
2018-01-14T09:13:16.770Z,60.90
2018-01-14T09:14:17.848Z,60.80
2018-01-14T09:15:18.973Z,60.70
2018-01-14T09:16:20.771Z,61.20
2018-01-14T09:17:21.815Z,61.20
2018-01-14T09:18:22.880Z,61.30
2018-01-14T09:19:24.012Z,61.20
2018-01-14T09:20:25.091Z,60.90
2018-01-14T09:21:26.175Z,61.20
2018-01-14T09:22:27.267Z,61.30
2018-01-14T09:23:28.327Z,61.50
2018-01-14T09:24:29.548Z,61.20
2018-01-14T09:25:30.623Z,61.30
2018-01-14T09:26:32.418Z,61.00
2018-01-14T09:27:33.504Z,61.00
2018-01-14T09:28:35.321Z,61.00
2018-01-14T09:29:36.411Z,61.00
2018-01-14T09:30:49.665Z,60.60
2018-01-14T09:31:50.731Z,60.70
2018-01-14T09:32:51.803Z,60.80
2018-01-14T09:33:52.854Z,61.10
2018-01-14T09:34:53.928Z,61.40
2018-01-14T09:35:55.015Z,60.80
2018-01-14T09:36:56.076Z,60.90
2018-01-14T09:37:57.134Z,61.20
2018-01-14T09:38:58.946Z,61.00
2018-01-14T09:40:00.058Z,60.90
2018-01-14T09:41:01.126Z,60.80
2018-01-14T09:42:02.202Z,61.10
2018-01-14T09:43:03.266Z,62.00
2018-01-14T09:44:04.324Z,60.70
2018-01-14T09:45:05.433Z,61.00
2018-01-14T09:46:06.497Z,61.00
2018-01-14T09:47:08.310Z,60.80
2018-01-14T09:48:09.374Z,60.80
2018-01-14T09:49:11.151Z,60.90
2018-01-14T09:50:12.256Z,61.20
2018-01-14T09:51:14.338Z,60.90
2018-01-14T09:52:15.471Z,60.80
2018-01-14T09:53:16.536Z,60.70
2018-01-14T09:54:17.611Z,60.70
2018-01-14T09:55:19.448Z,60.90
2018-01-14T09:56:21.287Z,60.80
2018-01-14T09:57:22.355Z,60.70
2018-01-14T09:58:23.477Z,60.90
2018-01-14T09:59:25.305Z,59.90
2018-01-14T10:00:27.967Z,61.20
2018-01-14T10:01:29.042Z,60.40
2018-01-14T10:02:30.139Z,60.50
2018-01-14T10:03:31.252Z,60.60
2018-01-14T10:04:32.442Z,60.60
2018-01-14T10:05:33.532Z,60.40
2018-01-14T10:06:34.604Z,60.60
2018-01-14T10:07:35.721Z,61.00
2018-01-14T10:08:37.543Z,61.20
2018-01-14T10:09:38.949Z,61.20
2018-01-14T10:10:40.030Z,61.00
2018-01-14T10:11:41.116Z,61.00
2018-01-14T10:12:42.190Z,61.10
2018-01-14T10:13:43.259Z,61.40
2018-01-14T10:14:44.346Z,61.30
2018-01-14T10:15:45.468Z,61.50
2018-01-14T10:16:47.354Z,61.40
2018-01-14T10:17:49.287Z,61.40
2018-01-14T10:18:50.419Z,61.40
2018-01-14T10:19:51.527Z,61.60
2018-01-14T10:20:52.596Z,61.10
2018-01-14T10:21:53.731Z,61.40
2018-01-14T10:22:54.809Z,61.30
2018-01-14T10:23:55.884Z,61.00
2018-01-14T10:24:57.546Z,61.30
2018-01-14T10:25:59.386Z,61.50
2018-01-14T10:27:00.471Z,61.40
2018-01-14T10:28:01.554Z,60.90
2018-01-14T10:29:02.626Z,61.20
2018-01-14T10:30:03.730Z,61.50
2018-01-14T10:31:04.819Z,62.20
2018-01-14T10:32:05.901Z,61.60
2018-01-14T10:33:07.727Z,61.70
2018-01-14T10:34:08.942Z,61.70
2018-01-14T10:35:10.023Z,61.40
2018-01-14T10:36:11.115Z,61.20
2018-01-14T10:37:12.186Z,61.20
2018-01-14T10:38:14.002Z,61.50
2018-01-14T10:39:15.099Z,62.20
2018-01-14T10:40:16.187Z,61.20
2018-01-14T10:41:17.332Z,61.00
2018-01-14T10:42:18.424Z,60.80
2018-01-14T10:43:19.583Z,61.10
2018-01-14T10:44:20.816Z,61.20
2018-01-14T10:45:22.115Z,61.30
2018-01-14T10:46:23.390Z,60.60
2018-01-14T10:47:25.280Z,61.30
2018-01-14T10:48:26.358Z,61.40
2018-01-14T10:49:27.443Z,61.40
2018-01-14T10:50:28.514Z,61.70
2018-01-14T10:51:29.627Z,61.90
2018-01-14T10:52:30.707Z,61.90
2018-01-14T10:53:32.527Z,62.00
2018-01-14T10:54:33.603Z,62.00
2018-01-14T10:55:34.682Z,61.80
2018-01-14T10:56:35.759Z,61.80
2018-01-14T10:57:37.570Z,61.70
2018-01-14T10:58:38.654Z,61.60
2018-01-14T10:59:40.479Z,61.90
2018-01-14T11:00:47.631Z,62.70
2018-01-14T11:01:48.808Z,61.40
2018-01-14T11:02:49.916Z,62.10
2018-01-14T11:03:50.994Z,61.80
2018-01-14T11:04:52.057Z,62.00
2018-01-14T11:05:53.143Z,61.80
2018-01-14T11:06:54.222Z,61.90
2018-01-14T11:07:55.278Z,62.00
2018-01-14T11:08:57.132Z,61.80
2018-01-14T11:09:58.291Z,61.80
2018-01-14T11:10:59.371Z,61.40
2018-01-14T11:12:00.469Z,61.10
2018-01-14T11:13:01.551Z,61.20
2018-01-14T11:14:02.627Z,61.40
2018-01-14T11:15:03.699Z,61.70
2018-01-14T11:16:04.905Z,61.30
2018-01-14T11:17:06.052Z,60.90
2018-01-14T11:18:07.239Z,60.60
2018-01-14T11:19:09.080Z,60.70
2018-01-14T11:20:10.169Z,60.70
2018-01-14T11:21:11.266Z,60.80
2018-01-14T11:22:13.139Z,61.60
2018-01-14T11:23:14.229Z,60.80
2018-01-14T11:24:15.286Z,60.80
2018-01-14T11:25:17.110Z,60.40
2018-01-14T11:26:18.215Z,60.40
2018-01-14T11:27:19.311Z,60.80
2018-01-14T11:28:20.452Z,60.70
2018-01-14T11:29:33.743Z,60.50
2018-01-14T11:30:34.824Z,60.20
2018-01-14T11:31:35.907Z,60.20
2018-01-14T11:32:36.990Z,59.90
2018-01-14T11:33:38.063Z,60.00
2018-01-14T11:34:39.148Z,60.70
2018-01-14T11:35:40.958Z,60.70
2018-01-14T11:36:42.802Z,60.00
2018-01-14T11:37:44.610Z,59.90
2018-01-14T11:38:45.683Z,59.90
2018-01-14T11:39:46.767Z,59.90
2018-01-14T11:40:47.854Z,60.00
2018-01-14T11:41:49.583Z,60.10
2018-01-14T11:42:51.481Z,60.30
2018-01-14T11:43:52.552Z,60.20
2018-01-14T11:44:53.647Z,60.80
2018-01-14T11:45:54.732Z,60.00
2018-01-14T11:46:55.806Z,59.90
2018-01-14T11:47:57.639Z,59.90
2018-01-14T11:48:59.465Z,60.20
2018-01-14T11:50:01.286Z,60.30
2018-01-14T11:51:02.371Z,60.30
2018-01-14T11:52:03.447Z,60.60
2018-01-14T11:53:04.526Z,60.20
2018-01-14T11:54:06.347Z,60.30
2018-01-14T11:55:07.423Z,60.30
2018-01-14T11:56:08.483Z,60.20
2018-01-14T11:57:09.584Z,60.40
2018-01-14T11:58:10.653Z,60.00
2018-01-14T11:59:11.742Z,60.20
2018-01-14T12:00:12.847Z,59.90
2018-01-14T12:01:14.686Z,60.30
2018-01-14T12:02:15.767Z,60.30
2018-01-14T12:03:16.859Z,60.50
2018-01-14T12:04:17.930Z,60.30
2018-01-14T12:05:18.994Z,60.10
2018-01-14T12:06:20.080Z,60.00
2018-01-14T12:07:21.146Z,59.90
2018-01-14T12:08:22.215Z,59.90
2018-01-14T12:09:23.311Z,59.90
2018-01-14T12:10:24.398Z,59.90
2018-01-14T12:11:26.219Z,60.00
2018-01-14T12:12:28.099Z,60.00
2018-01-14T12:13:29.183Z,60.00
2018-01-14T12:14:30.254Z,59.80
2018-01-14T12:15:31.501Z,60.00
2018-01-14T12:16:33.322Z,60.00
2018-01-14T12:17:34.395Z,60.00
2018-01-14T12:18:36.245Z,60.00
2018-01-14T12:19:37.369Z,60.00
2018-01-14T12:20:38.492Z,60.50
2018-01-14T12:21:40.314Z,60.10
2018-01-14T12:22:41.395Z,59.70
2018-01-14T12:23:44.024Z,59.80
2018-01-14T12:24:45.101Z,59.80
2018-01-14T12:25:46.194Z,59.80
2018-01-14T12:26:47.270Z,59.80
2018-01-14T12:27:48.346Z,59.80
2018-01-14T12:28:49.433Z,60.00
2018-01-14T12:29:50.498Z,60.10
2018-01-14T12:30:52.310Z,60.20
2018-01-14T12:31:53.402Z,60.20
2018-01-14T12:33:09.415Z,60.30
2018-01-14T12:35:41.193Z,60.40
2018-01-14T12:36:49.073Z,60.40
2018-01-14T12:37:50.905Z,60.70
2018-01-14T12:38:52.061Z,60.70
2018-01-14T12:39:53.205Z,60.70
2018-01-14T12:40:54.296Z,61.60
2018-01-14T12:41:55.383Z,60.70
2018-01-14T12:42:56.467Z,60.40
2018-01-14T12:43:58.294Z,60.40
2018-01-14T12:44:59.382Z,60.40
2018-01-14T12:46:00.563Z,60.30
2018-01-14T12:47:01.692Z,60.00
2018-01-14T12:48:02.789Z,59.90
2018-01-14T12:49:03.893Z,60.00
2018-01-14T12:50:04.970Z,60.00
2018-01-14T12:51:06.056Z,60.00
2018-01-14T12:52:07.883Z,60.80
2018-01-14T12:53:08.967Z,60.00
2018-01-14T12:54:10.090Z,59.90
2018-01-14T12:55:11.170Z,60.00
2018-01-14T12:56:12.246Z,59.70
2018-01-14T12:57:14.094Z,60.10
2018-01-14T12:58:15.931Z,59.30
2018-01-14T12:59:17.749Z,59.50
2018-01-14T13:00:18.836Z,59.40
2018-01-14T13:01:19.970Z,59.70
2018-01-14T13:02:21.042Z,59.70
2018-01-14T13:03:22.288Z,59.60
2018-01-14T13:04:23.443Z,59.50
2018-01-14T13:05:24.689Z,60.00
2018-01-14T13:06:26.628Z,59.40
2018-01-14T13:07:28.503Z,59.50
2018-01-14T13:08:30.020Z,59.50
2018-01-14T13:09:32.212Z,59.70
2018-01-14T13:10:33.335Z,59.60
2018-01-14T13:11:34.671Z,59.80